createdAt,value
2023-03-03T00:07:51.507Z,1.65
2023-03-03T00:10:18.534Z,1.10
2023-03-03T00:12:49.867Z,1.10
2023-03-03T00:15:19.724Z,0.73
2023-03-03T00:17:47.202Z,0.93
2023-03-03T00:20:26.505Z,1.10
2023-03-03T00:22:53.423Z,0.90
2023-03-03T00:25:29.997Z,1.15
2023-03-03T00:28:16.342Z,0.98
2023-03-03T00:30:43.226Z,1.15
2023-03-03T00:33:34.704Z,1.20
2023-03-03T00:36:22.656Z,1.23
2023-03-03T00:38:49.876Z,0.90
2023-03-03T00:41:24.304Z,1.17
2023-03-03T00:43:52.190Z,0.70
2023-03-03T00:46:22.266Z,0.90
2023-03-03T00:48:50.754Z,0.97
2023-03-03T00:51:23.517Z,1.00
2023-03-03T00:53:50.892Z,1.15
2023-03-03T00:56:17.770Z,1.50
2023-03-03T00:58:46.523Z,9.70
2023-03-03T01:01:14.127Z,2.95
2023-03-03T01:03:41.177Z,1.75
2023-03-03T01:06:08.354Z,1.63
2023-03-03T01:08:35.410Z,1.50
2023-03-03T01:11:16.461Z,1.30
2023-03-03T01:16:11.428Z,1.02
2023-03-03T01:18:40.398Z,1.20
2023-03-03T01:21:08.156Z,1.20
2023-03-03T01:23:35.348Z,0.98
2023-03-03T01:26:02.359Z,0.90
2023-03-03T01:28:29.330Z,0.98
2023-03-03T01:31:05.122Z,1.38
2023-03-03T01:33:34.176Z,1.80
2023-03-03T01:36:01.389Z,1.52
2023-03-03T01:38:28.693Z,1.38
2023-03-03T01:40:57.802Z,1.30
2023-03-03T01:43:28.208Z,1.30
2023-03-03T01:45:57.989Z,1.27
2023-03-03T01:48:39.940Z,1.60
2023-03-03T01:51:27.774Z,1.10
2023-03-03T01:54:02.557Z,1.30
2023-03-03T01:56:30.619Z,1.10
2023-03-03T01:59:17.542Z,0.90
2023-03-03T02:01:47.695Z,1.58
2023-03-03T02:04:15.352Z,1.23
2023-03-03T02:06:47.364Z,1.60
2023-03-03T02:09:32.711Z,1.63
2023-03-03T02:12:05.201Z,1.70
2023-03-03T02:14:32.164Z,1.50
2023-03-03T02:16:59.132Z,1.23
2023-03-03T02:19:42.551Z,1.55
2023-03-03T02:22:09.947Z,1.30
2023-03-03T02:24:48.026Z,1.00
2023-03-03T02:27:15.041Z,1.40
2023-03-03T02:29:41.897Z,0.95
2023-03-03T02:32:08.916Z,1.23
2023-03-03T02:34:52.961Z,1.40
2023-03-03T02:37:21.144Z,1.60
2023-03-03T02:39:48.107Z,1.70
2023-03-03T02:42:27.877Z,1.60
2023-03-03T02:44:54.774Z,1.17
2023-03-03T02:47:21.695Z,1.40
2023-03-03T02:49:50.706Z,1.17
2023-03-03T02:52:19.149Z,1.20
2023-03-03T02:54:46.259Z,1.40
2023-03-03T02:57:13.172Z,1.00
2023-03-03T02:59:40.110Z,1.33
2023-03-03T03:02:08.900Z,1.50
2023-03-03T03:04:35.979Z,1.30
2023-03-03T03:07:03.575Z,1.60
2023-03-03T03:09:30.537Z,1.80
2023-03-03T03:11:59.316Z,1.77
2023-03-03T03:14:26.201Z,1.90
2023-03-03T03:16:53.148Z,1.00
2023-03-03T03:19:20.131Z,0.90
2023-03-03T03:21:47.011Z,0.70
2023-03-03T03:24:14.010Z,0.90
2023-03-03T03:26:41.818Z,1.02
2023-03-03T03:29:09.228Z,0.90
2023-03-03T03:31:36.176Z,0.93
2023-03-03T03:34:03.073Z,1.02
2023-03-03T03:36:29.966Z,1.13
2023-03-03T03:38:56.855Z,1.30
2023-03-03T03:41:23.809Z,1.00
2023-03-03T03:43:50.815Z,0.88
2023-03-03T03:46:17.822Z,1.30
2023-03-03T03:48:45.778Z,1.00
2023-03-03T03:51:13.106Z,1.20
2023-03-03T03:53:40.076Z,1.00
2023-03-03T03:56:07.393Z,1.10
2023-03-03T03:58:34.299Z,1.38
2023-03-03T04:01:06.155Z,1.70
2023-03-03T04:03:33.492Z,2.00
2023-03-03T04:06:00.558Z,1.80
2023-03-03T04:08:27.509Z,1.83
2023-03-03T04:10:54.429Z,1.63
2023-03-03T04:13:21.295Z,1.73
2023-03-03T04:15:48.354Z,3.17
2023-03-03T04:18:15.441Z,2.55
2023-03-03T04:20:42.572Z,2.70
2023-03-03T04:23:09.449Z,1.92
2023-03-03T04:25:36.428Z,1.50
2023-03-03T04:28:05.510Z,2.38
2023-03-03T04:30:32.584Z,2.83
2023-03-03T04:32:59.508Z,5.57
2023-03-03T04:35:26.407Z,6.30
2023-03-03T04:37:53.330Z,6.05
2023-03-03T04:40:20.373Z,5.43
2023-03-03T04:42:47.373Z,5.93
2023-03-03T04:45:14.408Z,4.38
2023-03-03T04:47:42.058Z,3.60
2023-03-03T04:50:10.319Z,4.93
2023-03-03T04:52:37.311Z,3.05
2023-03-03T04:55:05.260Z,4.13
2023-03-03T04:57:32.162Z,7.35
2023-03-03T04:59:59.072Z,8.30
2023-03-03T05:02:25.984Z,10.30
2023-03-03T05:04:53.061Z,9.98
2023-03-03T05:07:22.474Z,10.18
2023-03-03T05:09:49.438Z,8.77
2023-03-03T05:12:16.992Z,9.13
2023-03-03T05:14:43.866Z,5.40
2023-03-03T05:17:10.824Z,1.88
2023-03-03T05:19:37.712Z,1.50
2023-03-03T05:22:04.605Z,1.23
2023-03-03T05:24:31.568Z,1.10
2023-03-03T05:27:01.617Z,1.00
2023-03-03T05:29:31.506Z,1.13
2023-03-03T05:31:58.724Z,1.10
2023-03-03T05:34:25.713Z,1.58
2023-03-03T05:36:52.620Z,1.00
2023-03-03T05:39:19.562Z,1.02
2023-03-03T05:41:46.864Z,2.53
2023-03-03T05:44:13.763Z,9.50
2023-03-03T05:46:40.984Z,12.07
2023-03-03T05:49:08.079Z,12.50
2023-03-03T05:51:35.053Z,9.95
2023-03-03T05:54:02.047Z,6.28
2023-03-03T05:56:28.947Z,3.58
2023-03-03T05:58:56.180Z,2.00
2023-03-03T06:01:23.089Z,1.67
2023-03-03T06:03:50.005Z,1.33
2023-03-03T06:06:17.304Z,1.38
2023-03-03T06:08:44.253Z,1.70
2023-03-03T06:11:11.400Z,4.72
2023-03-03T06:13:38.300Z,5.72
2023-03-03T06:16:05.496Z,8.65
2023-03-03T06:18:32.377Z,10.02
2023-03-03T06:20:59.322Z,13.48
2023-03-03T06:23:26.280Z,16.60
2023-03-03T06:25:53.814Z,15.73
2023-03-03T06:28:20.846Z,15.07
2023-03-03T06:30:47.760Z,14.32
2023-03-03T06:33:14.627Z,15.43
2023-03-03T06:35:41.675Z,13.43
2023-03-03T06:38:08.636Z,10.60
2023-03-03T06:40:35.623Z,8.10
2023-03-03T06:43:03.390Z,4.95
2023-03-03T06:45:30.296Z,2.10
2023-03-03T06:47:57.280Z,2.00
2023-03-03T06:50:24.230Z,1.48
2023-03-03T06:53:07.657Z,1.48
2023-03-03T06:55:34.661Z,1.50
2023-03-03T06:58:01.879Z,1.60
2023-03-03T07:00:30.988Z,1.60
2023-03-03T07:03:08.624Z,1.30
2023-03-03T07:05:35.513Z,1.27
2023-03-03T07:08:02.451Z,1.20
2023-03-03T07:10:30.927Z,1.70
2023-03-03T07:13:12.162Z,2.17
2023-03-03T07:15:39.101Z,3.17
2023-03-03T07:18:30.161Z,4.90
2023-03-03T07:20:57.088Z,6.63
2023-03-03T07:23:42.522Z,7.70
2023-03-03T07:26:15.228Z,6.88
2023-03-03T07:28:45.426Z,9.48
2023-03-03T07:31:44.598Z,10.60
2023-03-03T07:34:22.606Z,12.68
2023-03-03T07:37:01.485Z,12.85
2023-03-03T07:39:40.911Z,14.00
2023-03-03T07:42:10.868Z,12.68
2023-03-03T07:44:38.558Z,11.95
2023-03-03T07:47:36.576Z,10.63
2023-03-03T07:50:20.202Z,11.38
2023-03-03T07:52:59.772Z,11.73
2023-03-03T07:55:37.978Z,12.20
2023-03-03T07:58:14.873Z,13.07
2023-03-03T08:01:19.433Z,12.25
2023-03-03T08:03:47.701Z,12.55
2023-03-03T08:06:32.900Z,12.07
2023-03-03T08:09:20.187Z,10.85
2023-03-03T08:11:53.243Z,10.18
2023-03-03T08:14:29.320Z,11.00
2023-03-03T08:16:59.237Z,10.77
2023-03-03T08:19:29.969Z,11.30
2023-03-03T08:22:14.033Z,11.73
2023-03-03T08:24:40.953Z,14.18
2023-03-03T08:27:09.953Z,14.20
2023-03-03T08:29:39.331Z,14.10
2023-03-03T08:32:06.418Z,13.15
2023-03-03T08:34:33.331Z,11.63
2023-03-03T08:37:00.248Z,10.57
2023-03-03T08:39:27.200Z,9.82
2023-03-03T08:41:54.093Z,7.70
2023-03-03T08:44:20.987Z,5.50
2023-03-03T08:46:48.027Z,5.82
2023-03-03T08:49:15.106Z,6.32
2023-03-03T08:51:42.364Z,7.00
2023-03-03T08:54:09.468Z,8.25
2023-03-03T08:56:36.734Z,7.38
2023-03-03T08:59:03.872Z,9.80
2023-03-03T09:01:33.197Z,10.68
2023-03-03T09:04:00.284Z,10.75
2023-03-03T09:06:27.242Z,9.15
2023-03-03T09:08:55.032Z,8.02
2023-03-03T09:11:27.740Z,7.43
2023-03-03T09:14:16.213Z,5.90
2023-03-03T09:16:51.041Z,5.80
2023-03-03T09:19:20.835Z,6.50
2023-03-03T09:21:50.682Z,8.07
2023-03-03T09:24:36.199Z,7.50
2023-03-03T09:27:12.288Z,7.82
2023-03-03T09:29:39.339Z,6.80
2023-03-03T09:32:26.128Z,7.18
2023-03-03T09:34:53.205Z,7.80
2023-03-03T09:37:24.286Z,6.53
2023-03-03T09:39:55.896Z,4.85
2023-03-03T09:42:51.044Z,4.63
2023-03-03T09:45:27.671Z,3.95
2023-03-03T09:48:02.782Z,4.47
2023-03-03T09:50:54.394Z,4.43
2023-03-03T09:53:53.635Z,4.63
2023-03-03T09:56:36.383Z,5.28
2023-03-03T09:59:40.526Z,5.68
2023-03-03T10:02:53.797Z,5.60
2023-03-03T10:05:33.879Z,4.30
2023-03-03T10:08:18.283Z,4.32
2023-03-03T10:11:00.669Z,4.35
2023-03-03T10:13:36.176Z,4.60
2023-03-03T10:16:45.401Z,3.42
2023-03-03T10:19:34.317Z,3.60
2023-03-03T10:22:24.494Z,3.72
2023-03-03T10:25:16.892Z,3.70
2023-03-03T10:28:05.719Z,4.25
2023-03-03T10:31:05.029Z,4.20
2023-03-03T10:34:00.641Z,4.40
2023-03-03T10:36:55.309Z,4.40
2023-03-03T10:40:01.164Z,3.05
2023-03-03T10:42:40.057Z,2.75
2023-03-03T10:45:28.284Z,2.67
2023-03-03T10:48:29.234Z,2.72
2023-03-03T10:51:27.076Z,2.40
2023-03-03T10:54:15.274Z,2.85
2023-03-03T10:56:57.674Z,2.60
2023-03-03T10:59:45.650Z,2.80
2023-03-03T11:02:15.439Z,3.17
2023-03-03T11:05:33.481Z,2.70
2023-03-03T11:08:14.315Z,2.80
2023-03-03T11:11:00.868Z,2.15
2023-03-03T11:13:52.312Z,2.10
2023-03-03T11:16:28.751Z,2.65
2023-03-03T11:19:20.908Z,2.83
2023-03-03T11:21:59.791Z,3.45
2023-03-03T11:25:01.223Z,3.13
2023-03-03T11:30:35.830Z,2.85
2023-03-03T11:33:11.950Z,2.80
2023-03-03T11:35:47.794Z,3.08
2023-03-03T11:38:53.276Z,2.72
2023-03-03T11:41:32.615Z,2.70
2023-03-03T11:44:21.100Z,2.85
2023-03-03T11:47:03.331Z,3.33
2023-03-03T11:49:43.588Z,3.10
2023-03-03T11:52:53.394Z,2.95
2023-03-03T11:55:28.915Z,4.00
2023-03-03T11:58:12.880Z,4.03
2023-03-03T12:00:45.752Z,4.35
2023-03-03T12:03:19.860Z,3.75
2023-03-03T12:06:14.738Z,3.40
2023-03-03T12:09:00.520Z,3.78
2023-03-03T12:11:54.138Z,3.38
2023-03-03T12:14:41.544Z,4.10
2023-03-03T12:17:29.248Z,4.55
2023-03-03T12:20:23.774Z,4.50
2023-03-03T12:23:24.138Z,5.05
2023-03-03T12:26:13.068Z,5.80
2023-03-03T12:28:53.390Z,4.88
2023-03-03T12:31:57.663Z,4.07
2023-03-03T12:35:13.548Z,4.18
2023-03-03T12:37:51.968Z,5.28
2023-03-03T12:40:44.932Z,5.53
2023-03-03T12:43:23.647Z,5.03
2023-03-03T12:45:58.701Z,4.18
2023-03-03T12:48:44.773Z,3.20
2023-03-03T12:51:52.368Z,2.28
2023-03-03T12:54:27.748Z,1.70
2023-03-03T12:57:36.837Z,1.30
2023-03-03T13:00:06.572Z,2.05
2023-03-03T13:02:53.222Z,1.65
2023-03-03T13:05:29.090Z,1.40
2023-03-03T13:08:14.395Z,1.50
2023-03-03T13:10:57.647Z,1.60
2023-03-03T13:13:33.428Z,1.33
2023-03-03T13:16:41.449Z,1.35
2023-03-03T13:19:28.725Z,1.60
2023-03-03T13:22:03.134Z,1.40
2023-03-03T13:24:56.058Z,1.42
2023-03-03T13:27:26.890Z,1.42
2023-03-03T13:30:01.489Z,1.42
2023-03-03T13:33:00.178Z,1.60
2023-03-03T13:36:01.335Z,1.80
2023-03-03T13:38:33.693Z,2.47
2023-03-03T13:41:27.695Z,3.88
2023-03-03T13:44:27.113Z,3.92
2023-03-03T13:47:03.356Z,3.47
2023-03-03T13:49:42.247Z,5.20
2023-03-03T13:52:15.467Z,5.07
2023-03-03T13:55:09.579Z,6.97
2023-03-03T13:58:14.182Z,7.45
2023-03-03T14:00:56.934Z,9.00
2023-03-03T14:03:49.990Z,10.82
2023-03-03T14:06:23.431Z,11.60
2023-03-03T14:09:16.522Z,12.45
2023-03-03T14:12:00.702Z,13.20
2023-03-03T14:14:47.733Z,12.82
2023-03-03T14:17:25.973Z,11.30
2023-03-03T14:20:03.247Z,11.95
2023-03-03T14:22:52.792Z,12.23
2023-03-03T14:25:19.902Z,12.38
2023-03-03T14:27:46.735Z,14.60
2023-03-03T14:30:22.794Z,15.88
2023-03-03T14:33:09.489Z,15.43
2023-03-03T14:35:48.975Z,16.95
2023-03-03T14:38:22.220Z,15.98
2023-03-03T14:40:50.592Z,15.68
2023-03-03T14:43:36.336Z,15.00
2023-03-03T14:46:29.427Z,14.30
2023-03-03T14:48:59.858Z,11.40
2023-03-03T14:51:42.209Z,10.07
2023-03-03T14:54:22.568Z,5.90
2023-03-03T14:57:17.728Z,4.55
2023-03-03T15:00:00.234Z,3.40
2023-03-03T15:02:42.705Z,4.18
2023-03-03T15:05:21.651Z,3.50
2023-03-03T15:07:55.285Z,2.50
2023-03-03T15:10:34.189Z,2.53
2023-03-03T15:13:19.542Z,2.17
2023-03-03T15:16:17.530Z,2.15
2023-03-03T15:18:56.161Z,1.88
2023-03-03T15:21:28.472Z,1.90
2023-03-03T15:24:12.954Z,2.47
2023-03-03T15:26:50.048Z,2.55
2023-03-03T15:29:54.038Z,2.33
2023-03-03T15:32:44.709Z,2.75
2023-03-03T15:35:27.733Z,3.28
2023-03-03T15:38:06.969Z,3.47
2023-03-03T15:40:48.936Z,4.70
2023-03-03T15:43:37.060Z,6.20
2023-03-03T15:46:21.739Z,4.57
2023-03-03T15:48:52.164Z,4.95
2023-03-03T15:51:41.512Z,4.35
2023-03-03T15:54:29.856Z,4.50
2023-03-03T15:57:05.950Z,3.92
2023-03-03T15:59:56.134Z,3.50
2023-03-03T16:02:45.140Z,3.85
2023-03-03T16:05:17.145Z,2.20
2023-03-03T16:08:01.992Z,2.40
2023-03-03T16:10:40.066Z,1.73
2023-03-03T16:13:41.321Z,1.92
2023-03-03T16:19:31.787Z,1.90
2023-03-03T16:22:17.448Z,2.03
2023-03-03T16:24:59.150Z,2.08
2023-03-03T16:27:54.456Z,2.28
2023-03-03T16:30:46.558Z,2.28
2023-03-03T16:33:27.124Z,2.13
2023-03-03T16:36:13.141Z,2.85
2023-03-03T16:38:48.550Z,2.40
2023-03-03T16:41:26.228Z,2.58
2023-03-03T16:44:13.407Z,2.50
2023-03-03T16:46:47.472Z,1.90
2023-03-03T16:49:52.054Z,2.20
2023-03-03T16:52:30.157Z,2.55
2023-03-03T16:54:59.632Z,2.45
2023-03-03T16:57:29.279Z,2.33
2023-03-03T17:00:12.331Z,2.75
2023-03-03T17:02:39.222Z,2.30
2023-03-03T17:05:23.499Z,2.58
2023-03-03T17:08:00.863Z,2.42
2023-03-03T17:10:37.975Z,1.95
2023-03-03T17:13:42.613Z,1.67
2023-03-03T17:16:25.324Z,1.35
2023-03-03T17:19:01.213Z,1.63
2023-03-03T17:22:14.770Z,2.03
2023-03-03T17:25:18.489Z,1.65
2023-03-03T17:28:13.134Z,2.10
2023-03-03T17:31:09.014Z,1.73
2023-03-03T17:33:55.691Z,2.20
2023-03-03T17:36:52.225Z,1.65
2023-03-03T17:39:37.004Z,1.70
2023-03-03T17:42:31.785Z,1.58
2023-03-03T17:45:14.262Z,2.20
2023-03-03T17:47:51.162Z,1.58
2023-03-03T17:50:44.147Z,2.00
2023-03-03T17:53:29.465Z,1.58
2023-03-03T17:56:03.056Z,1.85
2023-03-03T17:59:07.718Z,1.70
2023-03-03T18:01:53.538Z,1.70
2023-03-03T18:04:39.578Z,1.77
2023-03-03T18:07:25.002Z,2.03
2023-03-03T18:09:54.606Z,1.83
2023-03-03T18:12:24.247Z,1.77
2023-03-03T18:15:38.506Z,1.90
2023-03-03T18:18:18.511Z,1.58
2023-03-03T18:21:00.142Z,2.17
2023-03-03T18:23:41.961Z,1.58
2023-03-03T18:26:39.662Z,1.58
2023-03-03T18:29:23.618Z,1.70
2023-03-03T18:31:53.866Z,1.90
2023-03-03T18:34:21.015Z,1.50
2023-03-03T18:37:23.043Z,1.85
2023-03-03T18:40:17.873Z,2.13
2023-03-03T18:42:45.605Z,1.58
2023-03-03T18:45:33.686Z,1.88
2023-03-03T18:48:05.290Z,1.63
2023-03-03T18:50:38.827Z,1.65
2023-03-03T18:53:12.749Z,1.75
2023-03-03T18:55:48.221Z,1.73
2023-03-03T18:58:15.088Z,1.75
2023-03-03T19:00:54.392Z,1.63
2023-03-03T19:03:26.968Z,1.63
2023-03-03T19:05:57.671Z,1.73
2023-03-03T19:08:45.129Z,1.50
2023-03-03T19:11:57.072Z,2.13
2023-03-03T19:14:28.946Z,1.35
2023-03-03T19:16:58.616Z,1.27
2023-03-03T19:19:32.799Z,1.30
2023-03-03T19:22:30.192Z,1.77
2023-03-03T19:25:09.417Z,1.38
2023-03-03T19:27:53.019Z,1.52
2023-03-03T19:30:27.603Z,2.55
2023-03-03T19:33:28.368Z,1.40
2023-03-03T19:36:07.732Z,1.70
2023-03-03T19:39:16.537Z,1.27
2023-03-03T19:42:15.407Z,1.83
2023-03-03T19:45:04.538Z,1.60
2023-03-03T19:48:10.403Z,2.00
2023-03-03T19:51:09.918Z,1.80
2023-03-03T19:53:50.992Z,1.80
2023-03-03T19:59:07.126Z,1.30
2023-03-03T20:01:33.946Z,1.20
2023-03-03T20:04:17.386Z,1.40
2023-03-03T20:07:11.730Z,1.40
2023-03-03T20:10:09.082Z,1.20
2023-03-03T20:13:00.734Z,1.23
2023-03-03T20:15:47.688Z,1.30
2023-03-03T20:18:53.046Z,1.45
2023-03-03T20:21:43.153Z,1.10
2023-03-03T20:24:31.128Z,1.20
2023-03-03T20:27:06.583Z,1.45
2023-03-03T20:30:02.360Z,1.15
2023-03-03T20:32:35.581Z,1.33
2023-03-03T20:35:24.918Z,1.25
2023-03-03T20:37:54.826Z,1.52
2023-03-03T20:40:36.021Z,1.30
2023-03-03T20:46:02.573Z,1.47
2023-03-03T20:49:04.749Z,1.52
2023-03-03T20:51:53.762Z,1.45
2023-03-03T20:54:42.017Z,1.50
2023-03-03T20:57:34.733Z,1.55
2023-03-03T21:00:16.331Z,1.40
2023-03-03T21:02:59.964Z,1.42
2023-03-03T21:05:31.715Z,1.30
2023-03-03T21:08:03.771Z,1.30
2023-03-03T21:10:34.133Z,1.20
2023-03-03T21:13:52.092Z,1.20
2023-03-03T21:16:21.872Z,1.02
2023-03-03T21:18:58.434Z,1.15
2023-03-03T21:21:28.392Z,1.52
2023-03-03T21:23:55.654Z,1.30
2023-03-03T21:26:47.920Z,1.63
2023-03-03T21:29:29.250Z,1.20
2023-03-03T21:32:01.223Z,1.40
2023-03-03T21:34:33.306Z,1.80
2023-03-03T21:37:02.405Z,1.88
2023-03-03T21:39:37.512Z,2.55
2023-03-03T21:42:09.837Z,2.75
2023-03-03T21:44:50.116Z,3.92
2023-03-03T21:47:20.022Z,3.60
2023-03-03T21:49:49.659Z,3.20
2023-03-03T21:52:18.726Z,1.85
2023-03-03T21:54:50.558Z,2.17
2023-03-03T21:57:17.969Z,1.98
2023-03-03T21:59:44.927Z,3.55
2023-03-03T22:02:11.954Z,5.00
2023-03-03T22:04:39.100Z,5.63
2023-03-03T22:07:06.051Z,4.68
2023-03-03T22:09:35.165Z,3.55
2023-03-03T22:12:02.084Z,2.72
2023-03-03T22:14:29.035Z,1.60
2023-03-03T22:16:57.519Z,1.10
2023-03-03T22:19:25.161Z,1.10
2023-03-03T22:21:53.439Z,1.63
2023-03-03T22:24:20.321Z,1.58
2023-03-03T22:26:47.189Z,1.52
2023-03-03T22:29:16.929Z,1.17
2023-03-03T22:31:43.917Z,1.40
2023-03-03T22:34:12.619Z,1.30
2023-03-03T22:36:39.793Z,1.17
2023-03-03T22:39:06.681Z,1.00
2023-03-03T22:41:33.597Z,1.60
2023-03-03T22:44:00.538Z,1.25
2023-03-03T22:46:27.462Z,0.90
2023-03-03T22:48:54.403Z,1.48
2023-03-03T22:51:24.260Z,1.35
2023-03-03T22:53:51.241Z,1.05
2023-03-03T22:56:18.309Z,1.27
2023-03-03T22:58:45.561Z,1.55
2023-03-03T23:01:12.448Z,1.52
2023-03-03T23:03:39.800Z,3.40
2023-03-03T23:06:07.186Z,6.40
2023-03-03T23:08:34.167Z,9.88
2023-03-03T23:11:01.168Z,8.00
2023-03-03T23:13:28.194Z,6.90
2023-03-03T23:16:01.147Z,3.30
2023-03-03T23:18:28.913Z,2.63
2023-03-03T23:20:56.703Z,1.65
2023-03-03T23:23:24.094Z,1.17
2023-03-03T23:25:51.100Z,0.80
2023-03-03T23:28:19.334Z,0.73
2023-03-03T23:30:46.430Z,0.80
2023-03-03T23:33:13.704Z,0.70
2023-03-03T23:35:41.141Z,0.95
2023-03-03T23:38:08.121Z,0.77
2023-03-03T23:40:37.328Z,0.43
2023-03-03T23:43:04.215Z,1.17
2023-03-03T23:45:31.109Z,0.60
2023-03-03T23:47:59.331Z,0.90
2023-03-03T23:50:26.455Z,0.90
2023-03-03T23:52:53.479Z,0.93
2023-03-03T23:55:20.750Z,0.80
2023-03-03T23:57:47.899Z,1.15
